Time;durP1;ratioP1;P1;durP2;ratioP2;P2;SDS_P1;SDS_P2;PMS_P1;PMS_P2;Temp;Humidity;BMP_temperature;BMP_pressure;BME280_temperature;BME280_humidity;BME280_pressure;Samples;Min_cycle;Max_cycle;Signal;HPM_P1;HPM_P2
2021/07/18 00:01:02;;;;;;;2.73;1.97;;;16.60;99.90;;;;;;5072053;28;20441;-63
2021/07/18 00:03:27;;;;;;;5.33;1.70;;;16.50;99.90;;;;;;5072715;28;20178;-61
2021/07/18 00:05:53;;;;;;;1.63;1.53;;;16.50;99.90;;;;;;5072531;28;20221;-63
2021/07/18 00:08:20;;;;;;;2.00;1.90;;;16.50;99.90;;;;;;5070317;28;20195;-63
2021/07/18 00:10:46;;;;;;;1.50;1.40;;;16.50;99.90;;;;;;5072510;28;20191;-63
2021/07/18 00:13:12;;;;;;;2.30;2.00;;;16.50;99.90;;;;;;5072378;28;20496;-63
2021/07/18 00:15:38;;;;;;;1.77;1.67;;;16.50;99.90;;;;;;5071939;28;20460;-63
2021/07/18 00:18:03;;;;;;;1.80;1.70;;;16.50;99.90;;;;;;5072037;28;20230;-63
2021/07/18 00:20:29;;;;;;;1.53;1.40;;;16.50;99.90;;;;;;5072506;28;20175;-63
2021/07/18 00:22:54;;;;;;;1.80;1.70;;;16.40;99.90;;;;;;5072551;28;20167;-62
2021/07/18 00:25:20;;;;;;;3.07;2.07;;;16.40;99.90;;;;;;5071901;28;20234;-63
2021/07/18 00:27:46;;;;;;;2.60;2.40;;;16.40;99.90;;;;;;5071785;28;20206;-63
2021/07/18 00:30:12;;;;;;;2.47;2.07;;;16.40;99.90;;;;;;5071998;28;20332;-62
2021/07/18 00:32:38;;;;;;;1.80;1.70;;;16.40;99.90;;;;;;5072244;28;20163;-63
2021/07/18 00:35:05;;;;;;;2.80;1.93;;;16.20;99.90;;;;;;5071916;28;20424;-62
2021/07/18 00:37:30;;;;;;;1.73;1.63;;;16.20;99.90;;;;;;5071773;28;20860;-63
2021/07/18 00:39:56;;;;;;;2.83;2.13;;;16.10;99.90;;;;;;5071903;28;20521;-63
2021/07/18 00:42:21;;;;;;;2.10;2.00;;;16.20;99.90;;;;;;5072365;28;20171;-62
2021/07/18 00:44:47;;;;;;;1.87;1.60;;;16.20;99.90;;;;;;5071940;28;20870;-63
2021/07/18 00:47:14;;;;;;;1.73;1.63;;;16.10;99.90;;;;;;5072356;28;20408;-62
2021/07/18 00:49:39;;;;;;;1.60;1.50;;;15.90;99.90;;;;;;5072022;28;20183;-62
2021/07/18 00:52:06;;;;;;;1.90;1.63;;;15.90;99.90;;;;;;5072241;28;20418;-62
2021/07/18 00:54:33;;;;;;;4.33;2.53;;;16.00;99.90;;;;;;5072230;28;20176;-62
2021/07/18 00:57:02;;;;;;;5.07;1.60;;;15.90;99.90;;;;;;5070988;28;20592;-63
2021/07/18 00:59:28;;;;;;;1.70;1.60;;;16.10;99.90;;;;;;5071923;28;20412;-61
2021/07/18 01:01:54;;;;;;;1.90;1.63;;;16.10;99.90;;;;;;5072010;28;20861;-61
2021/07/18 01:04:20;;;;;;;5.53;1.70;;;16.10;99.90;;;;;;5071033;28;20420;-63
2021/07/18 01:06:47;;;;;;;2.87;1.80;;;16.20;99.90;;;;;;5071537;28;20929;-62
2021/07/18 01:09:13;;;;;;;2.20;1.70;;;16.20;99.90;;;;;;5071890;28;20267;-62
2021/07/18 01:11:39;;;;;;;1.63;1.53;;;16.20;99.90;;;;;;5071760;28;20485;-61
2021/07/18 01:14:05;;;;;;;2.00;1.90;;;16.00;99.90;;;;;;5071178;28;20254;-62
2021/07/18 01:16:30;;;;;;;2.60;1.67;;;16.10;99.90;;;;;;5070932;28;20237;-62
2021/07/18 01:18:56;;;;;;;2.30;1.77;;;16.10;99.90;;;;;;5071035;28;20533;-62
2021/07/18 01:21:23;;;;;;;1.57;1.53;;;16.00;99.90;;;;;;5071805;28;20639;-62
2021/07/18 01:23:49;;;;;;;3.87;1.73;;;16.10;99.90;;;;;;5071636;28;20397;-62
2021/07/18 01:26:15;;;;;;;2.47;2.00;;;16.00;99.90;;;;;;5071242;28;20468;-62
2021/07/18 01:28:40;;;;;;;2.00;1.90;;;16.00;99.90;;;;;;5071568;28;20190;-62
2021/07/18 01:31:07;;;;;;;1.90;1.80;;;16.10;99.90;;;;;;5071764;28;20770;-62
2021/07/18 01:33:33;;;;;;;2.90;1.37;;;16.10;99.90;;;;;;5071506;28;20214;-62
2021/07/18 01:35:59;;;;;;;3.00;2.03;;;16.10;99.90;;;;;;5071211;28;20410;-62
2021/07/18 01:38:25;;;;;;;2.20;1.60;;;15.90;99.90;;;;;;5073405;28;20195;-62
2021/07/18 01:40:50;;;;;;;4.13;2.10;;;16.00;99.90;;;;;;5075419;28;20478;-62
2021/07/18 01:43:17;;;;;;;1.70;1.63;;;16.00;99.90;;;;;;5074446;28;20194;-62
2021/07/18 01:45:43;;;;;;;2.67;2.20;;;16.00;99.90;;;;;;5075168;28;20229;-62
2021/07/18 01:48:09;;;;;;;1.90;1.80;;;16.00;99.90;;;;;;5074467;28;20944;-62
2021/07/18 01:50:35;;;;;;;1.80;1.60;;;15.80;99.90;;;;;;5074965;28;20410;-62
2021/07/18 01:53:03;;;;;;;1.60;1.50;;;15.90;99.90;;;;;;5072997;28;20203;-61
2021/07/18 01:55:28;;;;;;;1.30;1.30;;;16.00;99.90;;;;;;5075186;28;21125;-62
2021/07/18 01:57:54;;;;;;;1.80;1.70;;;16.00;99.90;;;;;;5074650;28;20429;-62
2021/07/18 02:00:20;;;;;;;1.80;1.70;;;15.80;99.90;;;;;;5075054;28;20622;-62
2021/07/18 02:02:47;;;;;;;2.50;1.60;;;15.90;99.90;;;;;;5074754;28;20219;-62
2021/07/18 02:05:14;;;;;;;1.80;1.70;;;15.80;99.90;;;;;;5075089;28;20191;-62
2021/07/18 02:07:40;;;;;;;2.57;1.50;;;15.80;99.90;;;;;;5074614;28;20422;-62
2021/07/18 02:10:07;;;;;;;1.60;1.50;;;15.70;99.90;;;;;;5075057;28;20747;-62
2021/07/18 02:12:35;;;;;;;1.63;1.53;;;15.60;99.90;;;;;;5074629;28;20420;-62
2021/07/18 02:15:04;;;;;;;1.90;1.80;;;15.80;99.90;;;;;;5075121;28;20897;-62
2021/07/18 02:17:30;;;;;;;1.70;1.60;;;15.70;99.90;;;;;;5074435;28;20430;-62
2021/07/18 02:19:55;;;;;;;1.43;1.33;;;15.80;99.90;;;;;;5074686;28;20902;-62
2021/07/18 02:22:36;;;;;;;1.50;1.50;;;15.80;99.90;;;;;;5074768;28;20671;-62
2021/07/18 02:25:04;;;;;;;1.67;1.50;;;15.90;99.90;;;;;;5074534;28;20597;-62
2021/07/18 02:27:29;;;;;;;1.57;1.50;;;16.00;99.90;;;;;;5074157;28;20425;-62
2021/07/18 02:29:55;;;;;;;1.30;1.30;;;16.00;99.90;;;;;;5074398;28;20398;-62
2021/07/18 02:32:20;;;;;;;1.90;1.80;;;16.00;99.90;;;;;;5074505;28;20162;-62
2021/07/18 02:34:46;;;;;;;1.70;1.60;;;16.00;99.90;;;;;;5074356;28;20160;-62
2021/07/18 02:37:11;;;;;;;1.73;1.63;;;16.20;99.90;;;;;;5074122;28;20183;-62
2021/07/18 02:39:37;;;;;;;2.37;1.47;;;16.20;99.90;;;;;;5073270;28;20171;-62
2021/07/18 02:42:02;;;;;;;2.73;2.00;;;16.20;99.90;;;;;;5074186;28;20228;-62
2021/07/18 02:44:28;;;;;;;1.57;1.47;;;16.20;99.90;;;;;;5074269;28;20183;-62
2021/07/18 02:46:53;;;;;;;2.40;1.90;;;15.90;99.90;;;;;;5073629;28;20744;-62
2021/07/18 02:49:19;;;;;;;2.93;2.30;;;15.80;99.90;;;;;;5074082;28;20164;-62
2021/07/18 02:51:44;;;;;;;4.23;1.70;;;15.90;99.90;;;;;;5073900;28;20289;-62
2021/07/18 02:54:10;;;;;;;2.23;1.87;;;15.70;99.90;;;;;;5074169;28;20803;-62
2021/07/18 02:56:35;;;;;;;1.33;1.33;;;15.80;99.90;;;;;;5073667;28;20167;-62
2021/07/18 02:59:01;;;;;;;2.20;1.63;;;15.90;99.90;;;;;;5074019;28;20257;-62
2021/07/18 03:01:26;;;;;;;2.50;2.40;;;16.10;99.90;;;;;;5073932;28;20183;-62
2021/07/18 03:03:52;;;;;;;1.97;1.87;;;16.20;99.90;;;;;;5073864;28;20717;-62
2021/07/18 03:06:17;;;;;;;2.30;1.50;;;16.20;99.90;;;;;;5073501;28;20721;-62
2021/07/18 03:08:43;;;;;;;2.43;2.23;;;16.30;99.90;;;;;;5073724;28;20566;-62
2021/07/18 03:11:09;;;;;;;2.90;1.63;;;16.40;99.90;;;;;;5073787;28;20697;-62
2021/07/18 03:13:34;;;;;;;1.80;1.70;;;16.40;99.90;;;;;;5073511;28;20170;-62
2021/07/18 03:16:00;;;;;;;2.50;1.73;;;16.20;99.90;;;;;;5073377;28;20171;-62
2021/07/18 03:18:25;;;;;;;1.53;1.43;;;16.20;99.90;;;;;;5073722;28;20191;-62
2021/07/18 03:20:51;;;;;;;1.83;1.73;;;16.30;99.90;;;;;;5073580;28;20179;-62
2021/07/18 03:23:16;;;;;;;1.90;1.70;;;16.20;99.90;;;;;;5073514;28;20673;-61
2021/07/18 03:25:42;;;;;;;2.23;2.00;;;16.30;99.90;;;;;;5073183;28;20198;-62
2021/07/18 03:28:08;;;;;;;1.37;1.27;;;16.40;99.90;;;;;;5072937;28;20266;-62
2021/07/18 03:30:33;;;;;;;2.10;2.00;;;16.40;99.90;;;;;;5073439;28;20624;-62
2021/07/18 03:32:59;;;;;;;2.00;1.90;;;16.40;99.90;;;;;;5073279;28;20176;-62
2021/07/18 03:35:24;;;;;;;5.70;3.43;;;16.50;99.90;;;;;;5073206;28;20520;-62
2021/07/18 03:37:50;;;;;;;2.63;2.40;;;16.50;99.90;;;;;;5072779;28;20529;-62
2021/07/18 03:40:16;;;;;;;3.07;2.80;;;16.50;99.90;;;;;;5072944;28;20171;-62
2021/07/18 03:42:43;;;;;;;2.43;2.23;;;16.60;99.90;;;;;;5072849;28;20220;-62
2021/07/18 03:45:09;;;;;;;2.60;2.40;;;16.70;99.90;;;;;;5072807;28;20503;-62
2021/07/18 03:47:35;;;;;;;2.33;2.13;;;16.70;99.90;;;;;;5073137;28;20417;-62
2021/07/18 03:50:01;;;;;;;5.90;3.07;;;16.70;99.90;;;;;;5072952;28;20402;-61
2021/07/18 03:52:26;;;;;;;2.80;2.47;;;16.70;99.90;;;;;;5072730;28;20166;-62
2021/07/18 03:54:52;;;;;;;3.00;2.73;;;16.70;99.90;;;;;;5072612;28;20225;-62
2021/07/18 03:57:17;;;;;;;4.00;2.77;;;16.80;99.90;;;;;;5072153;28;20258;-62
2021/07/18 03:59:43;;;;;;;3.30;2.90;;;16.80;99.90;;;;;;5072693;28;20687;-61
2021/07/18 04:02:09;;;;;;;3.07;2.77;;;16.80;99.90;;;;;;5072065;28;20170;-62
2021/07/18 04:04:34;;;;;;;3.83;3.33;;;16.80;99.90;;;;;;5072454;28;20163;-62
2021/07/18 04:07:01;;;;;;;3.10;2.80;;;16.90;99.90;;;;;;5071993;28;20606;-62
2021/07/18 04:09:26;;;;;;;3.37;3.07;;;16.90;99.90;;;;;;5072389;28;20167;-62
2021/07/18 04:11:52;;;;;;;3.40;3.10;;;16.90;99.90;;;;;;5072311;28;20779;-62
2021/07/18 04:14:18;;;;;;;3.53;3.00;;;17.00;99.90;;;;;;5072210;28;20167;-62
2021/07/18 04:16:43;;;;;;;4.77;4.00;;;17.00;99.90;;;;;;5071868;28;20191;-62
2021/07/18 04:19:09;;;;;;;6.10;5.10;;;16.90;99.90;;;;;;5072212;28;20164;-62
2021/07/18 04:21:34;;;;;;;4.93;4.53;;;16.90;99.90;;;;;;5072200;28;20167;-62
2021/07/18 04:24:00;;;;;;;4.57;3.90;;;17.00;99.90;;;;;;5071988;28;20663;-62
2021/07/18 04:26:25;;;;;;;7.47;5.87;;;17.00;99.90;;;;;;5071655;28;20217;-62
2021/07/18 04:28:51;;;;;;;14.60;8.80;;;16.90;99.90;;;;;;5072127;28;20163;-62
2021/07/18 04:31:17;;;;;;;6.53;4.83;;;16.80;99.90;;;;;;5072166;28;20582;-62
2021/07/18 04:33:43;;;;;;;7.90;4.80;;;16.70;99.90;;;;;;5071950;28;20565;-62
2021/07/18 04:36:10;;;;;;;6.30;5.70;;;16.80;99.90;;;;;;5071944;28;20240;-62
2021/07/18 04:38:36;;;;;;;14.47;8.73;;;16.80;99.90;;;;;;5071920;28;20425;-62
2021/07/18 04:41:01;;;;;;;7.53;5.90;;;16.80;99.90;;;;;;5071772;28;20408;-62
2021/07/18 04:43:27;;;;;;;12.90;8.50;;;16.80;99.90;;;;;;5071952;28;20167;-62
2021/07/18 04:45:52;;;;;;;11.07;6.70;;;16.80;99.90;;;;;;5071768;28;20207;-62
2021/07/18 04:48:18;;;;;;;7.90;5.83;;;16.80;99.90;;;;;;5071670;28;20265;-61
2021/07/18 04:50:45;;;;;;;17.77;11.67;;;16.80;99.90;;;;;;5071935;28;20575;-62
2021/07/18 04:53:11;;;;;;;16.77;11.37;;;16.60;99.90;;;;;;5071831;28;20186;-62
2021/07/18 04:55:37;;;;;;;11.13;8.27;;;16.60;99.90;;;;;;5071743;28;20908;-61
2021/07/18 04:58:02;;;;;;;11.40;8.30;;;16.50;99.90;;;;;;5071374;28;20611;-62
2021/07/18 05:00:28;;;;;;;12.10;7.00;;;16.60;99.90;;;;;;5071693;28;20190;-62
2021/07/18 05:02:54;;;;;;;6.80;5.63;;;16.70;99.90;;;;;;5071726;28;20301;-62
2021/07/18 05:05:19;;;;;;;7.57;5.57;;;16.80;99.90;;;;;;5071694;28;20682;-61
2021/07/18 05:07:52;;;;;;;8.10;6.47;;;16.90;99.90;;;;;;5071365;28;20179;-62
2021/07/18 05:10:19;;;;;;;10.70;7.50;;;17.00;99.90;;;;;;5071675;28;20164;-62
2021/07/18 05:12:46;;;;;;;7.13;5.43;;;17.10;99.90;;;;;;5072445;28;20841;-61
2021/07/18 05:15:12;;;;;;;7.50;5.73;;;17.20;99.90;;;;;;5075842;28;20403;-62
2021/07/18 05:17:38;;;;;;;5.97;4.70;;;17.30;99.90;;;;;;5075257;28;20948;-62
2021/07/18 05:20:06;;;;;;;6.70;5.60;;;17.30;99.90;;;;;;5075740;28;20488;-62
2021/07/18 05:22:32;;;;;;;5.90;4.80;;;17.40;99.90;;;;;;5075517;28;20604;-62
2021/07/18 05:24:57;;;;;;;8.60;5.57;;;17.50;99.90;;;;;;5075460;28;20480;-62
2021/07/18 05:27:23;;;;;;;6.10;4.80;;;17.50;99.90;;;;;;5075064;28;20218;-62
2021/07/18 05:29:49;;;;;;;7.13;4.97;;;17.50;99.90;;;;;;5075569;28;20195;-62
2021/07/18 05:32:14;;;;;;;7.87;5.43;;;17.60;99.90;;;;;;5075522;28;20253;-62
2021/07/18 05:34:40;;;;;;;12.50;8.97;;;17.60;99.90;;;;;;5075337;28;20166;-62
2021/07/18 05:37:06;;;;;;;7.67;5.73;;;17.50;99.90;;;;;;5074898;28;20194;-62
2021/07/18 05:39:32;;;;;;;5.97;5.23;;;17.50;99.90;;;;;;5075209;28;20168;-61
2021/07/18 05:41:59;;;;;;;7.67;5.40;;;17.50;99.90;;;;;;5075249;28;20909;-62
2021/07/18 05:44:28;;;;;;;12.93;6.63;;;17.60;99.90;;;;;;5075229;28;20178;-62
2021/07/18 05:46:53;;;;;;;10.40;5.57;;;17.60;99.90;;;;;;5074712;28;20453;-62
2021/07/18 05:49:19;;;;;;;10.40;6.00;;;17.50;99.90;;;;;;5073881;28;20482;-61
2021/07/18 05:51:45;;;;;;;11.70;7.73;;;17.40;99.90;;;;;;5074895;28;20224;-62
2021/07/18 05:54:10;;;;;;;7.90;5.70;;;17.30;99.90;;;;;;5074887;28;20167;-61
2021/07/18 05:56:36;;;;;;;9.17;5.07;;;17.30;99.90;;;;;;5074896;28;20175;-62
2021/07/18 05:59:02;;;;;;;6.50;4.97;;;17.20;99.90;;;;;;5075036;28;20173;-62
2021/07/18 06:01:28;;;;;;;8.90;5.10;;;17.20;99.90;;;;;;5074804;28;20459;-62
2021/07/18 06:03:54;;;;;;;5.50;4.63;;;17.10;99.90;;;;;;5074652;28;20440;-62
2021/07/18 06:06:19;;;;;;;9.53;4.63;;;17.20;99.90;;;;;;5074187;28;20486;-62
2021/07/18 06:08:45;;;;;;;6.10;4.03;;;17.20;99.90;;;;;;5074765;28;20246;-62
2021/07/18 06:11:10;;;;;;;4.97;4.43;;;17.30;99.90;;;;;;5074650;28;20195;-62
2021/07/18 06:13:36;;;;;;;4.90;4.27;;;17.40;99.90;;;;;;5074572;28;20163;-62
2021/07/18 06:16:01;;;;;;;4.40;4.00;;;17.40;99.90;;;;;;5074281;28;20198;-62
2021/07/18 06:18:27;;;;;;;5.13;4.63;;;17.50;99.90;;;;;;5074559;28;20191;-61
2021/07/18 06:20:53;;;;;;;4.80;4.33;;;17.50;99.90;;;;;;5074405;28;20686;-62
2021/07/18 06:23:18;;;;;;;3.27;2.93;;;17.50;99.90;;;;;;5073910;28;20175;-62
2021/07/18 06:25:44;;;;;;;5.30;3.40;;;17.50;99.90;;;;;;5074343;28;20559;-62
2021/07/18 06:28:09;;;;;;;4.63;3.00;;;17.50;99.90;;;;;;5074062;28;20183;-62
2021/07/18 06:30:35;;;;;;;4.87;3.30;;;17.60;99.90;;;;;;5074412;28;20171;-62
2021/07/18 06:33:00;;;;;;;3.37;3.17;;;17.60;99.90;;;;;;5074185;28;20168;-62
2021/07/18 06:35:27;;;;;;;3.93;3.53;;;17.60;99.90;;;;;;5074275;28;20164;-62
2021/07/18 06:37:52;;;;;;;4.53;3.37;;;17.70;99.90;;;;;;5074028;28;20195;-62
2021/07/18 06:40:18;;;;;;;3.80;3.30;;;17.70;99.90;;;;;;5074213;28;20974;-62
2021/07/18 06:42:43;;;;;;;3.87;3.47;;;17.70;99.90;;;;;;5074046;28;20175;-62
2021/07/18 06:45:10;;;;;;;3.43;2.90;;;17.70;99.90;;;;;;5074093;28;20202;-62
2021/07/18 06:47:36;;;;;;;3.53;3.23;;;17.80;99.90;;;;;;5072312;28;20198;-62
2021/07/18 06:50:01;;;;;;;5.00;3.43;;;17.80;99.90;;;;;;5073980;28;20406;-62
2021/07/18 06:52:27;;;;;;;4.40;4.10;;;17.80;99.90;;;;;;5073839;28;20163;-62
2021/07/18 06:54:53;;;;;;;3.13;2.93;;;17.90;99.90;;;;;;5073889;28;20225;-62
2021/07/18 06:57:19;;;;;;;3.40;3.10;;;18.00;99.90;;;;;;5073606;28;20187;-62
2021/07/18 06:59:47;;;;;;;3.17;2.87;;;18.00;99.90;;;;;;5073682;28;20444;-61
2021/07/18 07:02:13;;;;;;;3.60;3.03;;;18.10;99.90;;;;;;5073866;28;20908;-62
2021/07/18 07:04:39;;;;;;;3.97;3.47;;;18.10;99.90;;;;;;5073430;28;20406;-62
2021/07/18 07:07:04;;;;;;;3.40;2.77;;;18.10;99.90;;;;;;5073253;28;20506;-62
2021/07/18 07:09:30;;;;;;;3.93;2.67;;;18.20;99.90;;;;;;5073510;28;20250;-62
2021/07/18 07:11:56;;;;;;;3.30;3.00;;;18.20;99.90;;;;;;5073680;28;20691;-63
2021/07/18 07:14:21;;;;;;;4.20;2.60;;;18.30;99.90;;;;;;5073426;28;20529;-63
2021/07/18 07:16:47;;;;;;;2.83;2.63;;;18.30;99.90;;;;;;5073211;28;20561;-63
2021/07/18 07:19:12;;;;;;;4.40;2.70;;;18.40;99.90;;;;;;5073286;28;20182;-62
2021/07/18 07:21:38;;;;;;;2.33;2.13;;;18.50;99.90;;;;;;5073349;28;20171;-61
2021/07/18 07:24:04;;;;;;;4.60;2.50;;;18.50;99.90;;;;;;5073223;28;20174;-61
2021/07/18 07:26:31;;;;;;;3.57;2.47;;;18.50;99.90;;;;;;5072862;28;20456;-63
2021/07/18 07:28:56;;;;;;;2.70;2.50;;;18.70;99.90;;;;;;5073345;28;20914;-62
2021/07/18 07:31:22;;;;;;;3.43;2.17;;;18.80;99.90;;;;;;5073128;28;20670;-62
2021/07/18 07:33:48;;;;;;;2.80;2.57;;;18.80;99.90;;;;;;5073070;28;20225;-62
2021/07/18 07:36:16;;;;;;;2.13;2.03;;;18.90;99.90;;;;;;5071773;28;20410;-61
2021/07/18 07:38:42;;;;;;;2.70;2.50;;;19.00;99.90;;;;;;5073013;28;20222;-62
2021/07/18 07:41:08;;;;;;;3.37;2.83;;;19.00;99.90;;;;;;5072943;28;20409;-62
2021/07/18 07:43:34;;;;;;;4.00;3.00;;;19.10;99.90;;;;;;5072903;28;20413;-62
2021/07/18 07:46:00;;;;;;;3.37;2.40;;;19.20;99.90;;;;;;5072452;28;20619;-62
2021/07/18 07:48:25;;;;;;;4.87;2.63;;;19.30;99.90;;;;;;5071609;28;20195;-62
2021/07/18 07:50:51;;;;;;;2.50;2.30;;;19.40;99.90;;;;;;5072699;28;20406;-62
2021/07/18 07:53:17;;;;;;;3.00;2.33;;;19.40;99.90;;;;;;5072362;28;20183;-62
2021/07/18 07:55:44;;;;;;;2.80;2.10;;;19.50;99.90;;;;;;5071759;28;20401;-62
2021/07/18 07:58:09;;;;;;;3.37;2.70;;;19.60;99.90;;;;;;5072241;28;20236;-62
2021/07/18 08:00:35;;;;;;;2.67;2.23;;;19.60;99.90;;;;;;5072990;28;20425;-62
2021/07/18 08:03:02;;;;;;;4.20;3.87;;;19.70;99.90;;;;;;5072325;28;20167;-62
2021/07/18 08:05:28;;;;;;;2.27;2.10;;;19.80;99.90;;;;;;5072380;28;20538;-62
2021/07/18 08:07:53;;;;;;;2.80;2.60;;;20.00;99.90;;;;;;5072114;28;20422;-63
2021/07/18 08:10:21;;;;;;;3.87;3.13;;;20.10;99.90;;;;;;5072452;28;20167;-62
2021/07/18 08:12:47;;;;;;;2.93;2.73;;;20.20;99.90;;;;;;5072396;28;20262;-63
2021/07/18 08:15:15;;;;;;;2.53;2.33;;;20.30;99.90;;;;;;5072381;28;20413;-63
2021/07/18 08:17:41;;;;;;;3.30;3.07;;;20.40;99.90;;;;;;5071984;28;20796;-63
2021/07/18 08:20:14;;;;;;;4.30;2.90;;;20.50;99.90;;;;;;5072599;28;20873;-63
2021/07/18 08:22:41;;;;;;;3.93;3.63;;;20.50;99.90;;;;;;5072375;28;20405;-63
2021/07/18 08:25:07;;;;;;;3.53;3.23;;;20.60;99.90;;;;;;5072293;28;20481;-63
2021/07/18 08:27:34;;;;;;;2.70;2.50;;;20.60;99.90;;;;;;5072173;28;20591;-63
2021/07/18 08:30:00;;;;;;;3.20;2.90;;;20.70;99.90;;;;;;5072105;28;20437;-62
2021/07/18 08:32:26;;;;;;;3.87;3.40;;;20.80;99.30;;;;;;5072143;28;20445;-63
2021/07/18 08:34:51;;;;;;;3.10;2.90;;;20.80;99.60;;;;;;5072095;28;20997;-63
2021/07/18 08:37:17;;;;;;;5.10;3.40;;;20.90;99.40;;;;;;5071757;28;20559;-63
2021/07/18 08:39:43;;;;;;;3.40;3.10;;;21.00;99.90;;;;;;5072180;28;20224;-63
2021/07/18 08:42:09;;;;;;;2.57;2.20;;;21.00;99.10;;;;;;5072125;28;20164;-63
2021/07/18 08:44:34;;;;;;;3.50;3.27;;;21.00;98.30;;;;;;5071813;28;20199;-63
2021/07/18 08:47:00;;;;;;;3.13;2.93;;;21.10;99.00;;;;;;5071361;28;20542;-63
2021/07/18 08:49:26;;;;;;;5.23;3.00;;;21.20;98.80;;;;;;5072095;28;20163;-63
2021/07/18 08:51:53;;;;;;;3.23;2.93;;;21.30;98.50;;;;;;5071895;28;20940;-63
2021/07/18 08:54:19;;;;;;;3.10;2.83;;;21.50;98.50;;;;;;5071891;28;20167;-64
2021/07/18 08:56:47;;;;;;;4.00;3.27;;;21.60;98.10;;;;;;5071515;28;20429;-63
2021/07/18 08:59:14;;;;;;;4.30;3.30;;;21.60;97.80;;;;;;5071810;28;20524;-63
2021/07/18 09:01:42;;;;;;;2.33;2.17;;;21.80;98.30;;;;;;5071581;28;20425;-63
2021/07/18 09:04:07;;;;;;;5.33;3.70;;;21.80;98.10;;;;;;5071925;28;20797;-63
2021/07/18 09:06:53;;;;;;;2.53;2.33;;;22.10;98.30;;;;;;5071199;28;20445;-64
2021/07/18 09:09:21;;;;;;;3.47;3.17;;;22.20;97.90;;;;;;5071579;28;20651;-63
2021/07/18 09:11:58;;;;;;;3.30;3.00;;;22.30;98.20;;;;;;5071611;28;20430;-63
2021/07/18 09:14:24;;;;;;;5.87;3.47;;;22.40;97.50;;;;;;5071621;28;20805;-63
2021/07/18 09:16:51;;;;;;;5.20;2.77;;;22.60;98.10;;;;;;5071219;28;20508;-64
2021/07/18 09:19:19;;;;;;;3.00;2.80;;;22.80;98.10;;;;;;5071712;28;21094;-63
2021/07/18 09:21:51;;;;;;;3.47;2.70;;;22.90;96.80;;;;;;5071544;28;20455;-64
2021/07/18 09:24:22;;;;;;;5.47;3.20;;;23.00;96.90;;;;;;5071465;28;20405;-63
2021/07/18 09:27:08;;;;;;;3.47;3.17;;;23.10;97.00;;;;;;5071215;28;20472;-63
2021/07/18 09:29:35;;;;;;;3.40;3.13;;;23.50;97.60;;;;;;5071518;28;20405;-63
2021/07/18 09:32:21;;;;;;;3.20;3.00;;;23.70;97.50;;;;;;5071427;28;20397;-64
2021/07/18 09:34:54;;;;;;;3.70;3.40;;;23.50;97.00;;;;;;5071214;28;20493;-63
2021/07/18 09:37:25;;;;;;;3.93;3.63;;;23.60;96.50;;;;;;5071047;28;21038;-64
2021/07/18 09:40:06;;;;;;;3.73;3.43;;;23.50;96.20;;;;;;5071331;28;20402;-63
2021/07/18 09:42:35;;;;;;;3.70;3.40;;;23.70;96.00;;;;;;5071328;28;20409;-64
2021/07/18 09:45:03;;;;;;;5.00;3.90;;;23.90;95.50;;;;;;5071249;28;20756;-64
2021/07/18 09:47:29;;;;;;;3.87;3.57;;;24.00;96.40;;;;;;5071540;28;20949;-63
2021/07/18 09:49:55;;;;;;;3.03;2.83;;;24.20;96.00;;;;;;5071284;28;20425;-63
2021/07/18 09:52:28;;;;;;;3.70;3.50;;;24.40;95.40;;;;;;5071395;28;20202;-64
2021/07/18 09:54:56;;;;;;;4.20;3.80;;;24.60;95.10;;;;;;5071233;28;20599;-64
2021/07/18 09:57:31;;;;;;;5.13;3.50;;;24.90;95.50;;;;;;5071141;28;20436;-63
2021/07/18 09:59:57;;;;;;;3.77;3.47;;;25.10;95.50;;;;;;5073828;28;20416;-64
2021/07/18 10:02:27;;;;;;;3.07;2.77;;;25.30;95.10;;;;;;5074998;28;20492;-63
2021/07/18 10:04:54;;;;;;;3.37;3.00;;;25.40;94.50;;;;;;5074805;28;20181;-64
2021/07/18 10:07:22;;;;;;;3.37;3.10;;;25.40;93.70;;;;;;5073415;28;20426;-63
2021/07/18 10:09:51;;;;;;;5.57;3.30;;;25.60;93.50;;;;;;5074812;28;20402;-64
2021/07/18 10:12:17;;;;;;;3.77;3.23;;;25.80;93.10;;;;;;5074822;28;20413;-64
2021/07/18 10:14:43;;;;;;;5.07;3.20;;;25.80;92.80;;;;;;5073393;28;20437;-64
2021/07/18 10:17:10;;;;;;;4.37;3.97;;;25.90;93.70;;;;;;5074379;28;20806;-64
2021/07/18 10:19:36;;;;;;;3.87;3.50;;;26.10;93.70;;;;;;5074801;28;20179;-64
2021/07/18 10:22:03;;;;;;;3.43;3.23;;;26.20;93.30;;;;;;5074523;28;20413;-64
2021/07/18 10:24:31;;;;;;;4.13;3.83;;;26.50;92.90;;;;;;5074504;28;20775;-64
2021/07/18 10:27:02;;;;;;;4.40;3.67;;;26.20;92.70;;;;;;5072664;28;20841;-64
2021/07/18 10:29:29;;;;;;;3.70;3.17;;;26.50;92.30;;;;;;5074597;28;20496;-64
2021/07/18 10:31:58;;;;;;;2.90;2.70;;;26.70;91.60;;;;;;5073072;28;20768;-64
2021/07/18 10:34:33;;;;;;;2.97;2.70;;;26.70;90.40;;;;;;5074297;28;20451;-64
2021/07/18 10:36:58;;;;;;;3.77;3.23;;;26.70;90.90;;;;;;5073857;28;20436;-64
2021/07/18 10:39:31;;;;;;;3.17;2.90;;;26.80;91.20;;;;;;5072928;28;20409;-64
2021/07/18 10:42:00;;;;;;;4.50;4.10;;;26.90;91.30;;;;;;5074108;28;20195;-64
2021/07/18 10:44:37;;;;;;;3.40;3.10;;;26.70;90.30;;;;;;5074187;28;20433;-64
2021/07/18 10:47:02;;;;;;;3.03;2.70;;;26.90;91.10;;;;;;5073726;28;21017;-64
2021/07/18 10:49:53;;;;;;;3.43;3.13;;;27.10;92.00;;;;;;5074077;28;20409;-64
2021/07/18 10:52:20;;;;;;;2.80;2.57;;;27.30;90.50;;;;;;5073549;28;20274;-64
2021/07/18 10:54:45;;;;;;;3.23;2.87;;;27.20;89.40;;;;;;5073778;28;20425;-64
2021/07/18 10:57:32;;;;;;;3.40;3.10;;;27.20;90.10;;;;;;5073674;28;20429;-64
2021/07/18 11:00:17;;;;;;;3.50;3.27;;;27.60;89.90;;;;;;5073692;28;20266;-64
2021/07/18 11:02:43;;;;;;;3.10;2.90;;;27.50;90.40;;;;;;5073817;28;20428;-64
2021/07/18 11:05:14;;;;;;;2.87;2.67;;;27.70;90.80;;;;;;5072373;28;20417;-64
2021/07/18 11:07:40;;;;;;;3.20;2.90;;;27.80;91.30;;;;;;5072196;28;20334;-64
2021/07/18 11:10:09;;;;;;;2.83;2.70;;;27.90;90.80;;;;;;5072363;28;20480;-64
2021/07/18 11:12:37;;;;;;;3.80;3.50;;;28.10;90.30;;;;;;5072142;28;20462;-64
2021/07/18 11:15:15;;;;;;;3.57;3.37;;;28.10;89.30;;;;;;5073350;28;20954;-64
2021/07/18 11:17:59;;;;;;;3.27;2.97;;;28.40;90.30;;;;;;5073183;28;20425;-64
2021/07/18 11:20:37;;;;;;;2.87;2.67;;;28.60;88.60;;;;;;5073384;28;20397;-64
2021/07/18 11:23:04;;;;;;;3.80;3.50;;;28.60;85.20;;;;;;5073276;28;20393;-64
2021/07/18 11:26:18;;;;;;;3.57;3.37;;;28.60;85.80;;;;;;5073462;28;20445;-64
2021/07/18 11:28:49;;;;;;;2.90;2.80;;;28.60;86.50;;;;;;5070745;28;20437;-64
2021/07/18 11:31:33;;;;;;;3.27;2.93;;;28.90;87.60;;;;;;5070821;28;20401;-65
2021/07/18 11:34:11;;;;;;;3.63;3.40;;;29.20;90.00;;;;;;5072421;28;20417;-64
2021/07/18 11:36:36;;;;;;;3.70;3.40;;;29.00;85.90;;;;;;5072642;28;20397;-64
2021/07/18 11:39:23;;;;;;;3.03;2.83;;;28.60;85.40;;;;;;5073164;28;20489;-64
2021/07/18 11:41:50;;;;;;;2.93;2.73;;;29.00;89.20;;;;;;5072907;28;20195;-64
2021/07/18 11:44:18;;;;;;;2.67;2.53;;;29.20;87.90;;;;;;5073109;28;20510;-64
2021/07/18 11:46:46;;;;;;;2.90;2.77;;;29.20;86.50;;;;;;5072430;28;20467;-64
2021/07/18 11:49:14;;;;;;;3.63;3.33;;;29.50;88.00;;;;;;5072956;28;20921;-64
2021/07/18 11:51:42;;;;;;;3.90;3.13;;;29.80;84.80;;;;;;5072757;28;20402;-64
2021/07/18 11:54:08;;;;;;;2.93;2.73;;;29.70;83.90;;;;;;5072764;28;20390;-64
2021/07/18 11:56:39;;;;;;;2.90;2.60;;;30.10;83.40;;;;;;5072287;28;20484;-64
2021/07/18 11:59:12;;;;;;;3.10;2.90;;;30.10;85.00;;;;;;5072579;28;20406;-64
2021/07/18 12:01:40;;;;;;;3.23;3.03;;;30.10;81.00;;;;;;5072591;28;20421;-64
2021/07/18 12:04:07;;;;;;;2.67;2.50;;;30.10;82.40;;;;;;5072483;28;20453;-64
2021/07/18 12:06:34;;;;;;;3.70;3.40;;;30.20;84.90;;;;;;5072233;28;20478;-65
2021/07/18 12:09:14;;;;;;;3.60;3.40;;;30.30;86.80;;;;;;5072293;28;20501;-64
2021/07/18 12:11:40;;;;;;;3.27;2.97;;;30.40;79.00;;;;;;5072516;28;20504;-64
2021/07/18 12:14:08;;;;;;;3.73;3.43;;;30.30;80.20;;;;;;5072155;28;20471;-65
2021/07/18 12:16:35;;;;;;;5.90;3.37;;;30.50;83.40;;;;;;5072117;28;20463;-64
2021/07/18 12:19:00;;;;;;;2.87;2.77;;;30.70;79.10;;;;;;5072361;28;20489;-65
2021/07/18 12:21:28;;;;;;;3.60;3.30;;;30.60;82.30;;;;;;5071772;28;20489;-64
2021/07/18 12:24:20;;;;;;;4.87;3.40;;;31.00;82.40;;;;;;5072115;28;20175;-64
2021/07/18 12:26:47;;;;;;;3.30;2.53;;;31.00;80.90;;;;;;5071753;28;20824;-64
2021/07/18 12:29:14;;;;;;;2.93;2.73;;;30.90;80.80;;;;;;5072048;28;20409;-64
2021/07/18 12:31:44;;;;;;;3.67;3.40;;;31.00;80.20;;;;;;5072186;28;20410;-64
2021/07/18 12:34:10;;;;;;;3.33;3.13;;;31.00;80.60;;;;;;5071950;28;20424;-64
2021/07/18 12:37:03;;;;;;;3.23;3.03;;;30.70;79.80;;;;;;5071702;28;21027;-64
2021/07/18 12:39:38;;;;;;;3.50;3.20;;;30.60;79.10;;;;;;5071703;28;20803;-64
2021/07/18 12:42:11;;;;;;;3.37;3.17;;;30.90;80.50;;;;;;5072054;28;20854;-65
2021/07/18 12:44:45;;;;;;;3.63;3.33;;;30.90;80.10;;;;;;5071967;28;21079;-64
2021/07/18 12:47:23;;;;;;;3.97;3.67;;;31.30;81.50;;;;;;5071551;28;20460;-64